createdAt,value
2022-08-09T00:00:23.226Z,75.90
2022-08-09T00:02:51.915Z,76.00
2022-08-09T00:06:17.390Z,76.70
2022-08-09T00:08:11.397Z,77.00
2022-08-09T00:10:41.216Z,77.10
2022-08-09T00:13:17.290Z,77.70
2022-08-09T00:15:58.630Z,78.10
2022-08-09T00:18:27.545Z,78.60
2022-08-09T00:20:56.863Z,78.80
2022-08-09T00:23:55.324Z,79.10
2022-08-09T00:26:13.744Z,79.50
2022-08-09T00:28:52.538Z,80.00
2022-08-09T00:31:57.019Z,80.60
2022-08-09T00:34:11.017Z,80.90
2022-08-09T00:36:40.139Z,81.40
2022-08-09T00:39:16.986Z,81.90
2022-08-09T00:44:11.596Z,82.10
2022-08-09T00:44:46.811Z,82.80
2022-08-09T00:47:16.676Z,83.40
2022-08-09T00:49:54.568Z,84.00
2022-08-09T00:52:30.450Z,84.80
2022-08-09T00:55:00.282Z,85.10
2022-08-09T00:57:34.300Z,85.90
2022-08-09T01:00:20.512Z,87.20
2022-08-09T01:02:52.232Z,88.50
2022-08-09T01:05:51.526Z,89.50
2022-08-09T01:08:16.617Z,90.60
2022-08-09T01:10:59.075Z,90.80
2022-08-09T01:13:31.180Z,91.20
2022-08-09T01:16:11.483Z,91.60
2022-08-09T01:18:47.386Z,92.20
2022-08-09T01:21:45.068Z,92.60
2022-08-09T01:24:25.547Z,92.90
2022-08-09T01:27:00.080Z,93.70
2022-08-09T01:29:41.159Z,93.80
2022-08-09T01:32:31.113Z,94.00
2022-08-09T01:35:17.877Z,93.90
2022-08-09T01:38:08.174Z,94.00
2022-08-09T01:40:42.191Z,94.30
2022-08-09T01:43:12.072Z,95.00
2022-08-09T01:45:44.795Z,94.50
2022-08-09T01:48:15.761Z,94.60
2022-08-09T01:50:44.125Z,94.40
2022-08-09T01:53:19.371Z,94.60
2022-08-09T01:55:48.703Z,94.80
2022-08-09T01:58:18.480Z,95.20
2022-08-09T02:00:53.033Z,95.40
2022-08-09T02:03:21.498Z,95.70
2022-08-09T02:06:03.899Z,96.10
2022-08-09T02:08:57.451Z,96.40
2022-08-09T02:11:25.629Z,96.70
2022-08-09T02:14:15.759Z,97.00
2022-08-09T02:16:59.697Z,97.50
2022-08-09T02:19:43.359Z,98.40
2022-08-09T02:22:14.896Z,99.10
2022-08-09T02:24:46.346Z,99.10
2022-08-09T02:27:21.161Z,99.40
2022-08-09T02:30:12.100Z,98.60
2022-08-09T02:32:42.397Z,98.20
2022-08-09T02:35:17.648Z,98.20
2022-08-09T02:37:47.804Z,97.90
2022-08-09T02:40:27.053Z,97.80
2022-08-09T02:43:00.098Z,97.80
2022-08-09T02:45:31.156Z,97.50
2022-08-09T02:48:03.314Z,97.40
2022-08-09T02:50:34.392Z,97.50
2022-08-09T02:53:03.736Z,97.80
2022-08-09T02:55:39.467Z,97.60
2022-08-09T02:58:36.330Z,97.80
2022-08-09T03:01:06.106Z,97.20
2022-08-09T03:04:12.242Z,97.80
2022-08-09T03:06:25.147Z,97.70
2022-08-09T03:08:55.814Z,97.70
2022-08-09T03:12:04.280Z,97.70
2022-08-09T03:14:13.093Z,97.60
2022-08-09T03:16:45.259Z,96.80
2022-08-09T03:19:58.371Z,96.80
2022-08-09T03:22:12.253Z,97.00
2022-08-09T03:24:51.811Z,97.00
2022-08-09T03:27:21.503Z,97.00
2022-08-09T03:29:57.323Z,97.20
2022-08-09T03:32:31.121Z,97.40
2022-08-09T03:34:59.621Z,97.50
2022-08-09T03:37:55.941Z,97.70
2022-08-09T03:40:18.039Z,98.30
2022-08-09T03:42:46.580Z,98.70
2022-08-09T03:45:15.609Z,99.00
2022-08-09T03:47:46.703Z,99.10
2022-08-09T03:50:27.734Z,99.70
2022-08-09T03:52:57.607Z,99.90
2022-08-09T03:55:25.723Z,99.90
2022-08-09T03:58:03.488Z,99.90
2022-08-09T04:00:34.550Z,99.90
2022-08-09T04:03:04.594Z,99.90
2022-08-09T04:05:40.414Z,99.90
2022-08-09T04:08:08.494Z,99.90
2022-08-09T04:10:36.706Z,99.90
2022-08-09T04:13:09.552Z,99.90
2022-08-09T04:16:18.235Z,99.90
2022-08-09T04:18:28.893Z,99.90
2022-08-09T04:20:56.752Z,99.90
2022-08-09T04:23:25.641Z,99.90
2022-08-09T04:25:54.199Z,99.90
2022-08-09T04:28:32.913Z,99.90
2022-08-09T04:31:07.864Z,99.90
2022-08-09T04:33:53.176Z,99.90
2022-08-09T04:36:25.831Z,99.90
2022-08-09T04:38:53.865Z,99.90
2022-08-09T04:41:23.750Z,99.90
2022-08-09T04:44:05.767Z,99.90
2022-08-09T04:46:57.544Z,99.90
2022-08-09T04:49:40.499Z,99.90
2022-08-09T04:52:18.226Z,99.90
2022-08-09T04:54:51.766Z,99.90
2022-08-09T04:57:23.843Z,99.90
2022-08-09T04:59:52.348Z,99.90
2022-08-09T05:02:20.324Z,99.90
2022-08-09T05:04:55.633Z,99.90
2022-08-09T05:07:24.299Z,99.90
2022-08-09T05:09:52.203Z,99.90
2022-08-09T05:12:22.546Z,99.90
2022-08-09T05:14:50.527Z,99.90
2022-08-09T05:18:42.604Z,99.90
2022-08-09T05:20:09.555Z,99.90
2022-08-09T05:23:54.625Z,99.90
2022-08-09T05:25:26.459Z,99.90
2022-08-09T05:28:00.397Z,98.90
2022-08-09T05:30:30.044Z,97.90
2022-08-09T05:33:00.707Z,95.40
2022-08-09T05:35:31.960Z,94.20
2022-08-09T05:38:06.955Z,92.70
2022-08-09T05:40:36.023Z,91.60
2022-08-09T05:43:04.569Z,90.80
2022-08-09T05:45:52.720Z,90.00
2022-08-09T05:48:20.384Z,89.20
2022-08-09T05:51:16.762Z,87.00
2022-08-09T05:53:56.856Z,84.70
2022-08-09T05:56:26.074Z,84.70
2022-08-09T05:58:58.375Z,82.30
2022-08-09T06:01:27.087Z,79.10
2022-08-09T06:04:02.516Z,76.30
2022-08-09T06:06:35.546Z,74.70
2022-08-09T06:09:09.986Z,72.50
2022-08-09T06:11:56.825Z,71.00
2022-08-09T06:14:26.100Z,69.20
2022-08-09T06:16:55.295Z,66.80
2022-08-09T06:19:25.306Z,65.10
2022-08-09T06:21:58.525Z,64.50
2022-08-09T06:24:26.824Z,64.30
2022-08-09T06:26:54.696Z,64.50
2022-08-09T06:29:23.407Z,64.20
2022-08-09T06:32:08.990Z,63.10
2022-08-09T06:34:42.815Z,63.00
2022-08-09T06:37:12.078Z,63.10
2022-08-09T06:39:58.364Z,61.60
2022-08-09T06:42:30.892Z,61.40
2022-08-09T06:46:04.238Z,61.50
2022-08-09T06:48:00.574Z,59.20
2022-08-09T06:50:31.088Z,60.10
2022-08-09T06:53:01.886Z,59.30
2022-08-09T06:55:33.019Z,58.50
2022-08-09T06:58:04.160Z,58.00
2022-08-09T07:00:51.495Z,57.20
2022-08-09T07:03:27.629Z,57.10
2022-08-09T07:06:03.610Z,56.60
2022-08-09T07:08:34.557Z,55.40
2022-08-09T07:11:07.022Z,55.80
2022-08-09T07:13:45.493Z,55.40
2022-08-09T07:16:41.951Z,54.80
2022-08-09T07:19:15.846Z,54.70
2022-08-09T07:21:55.716Z,55.50
2022-08-09T07:24:32.503Z,54.40
2022-08-09T07:27:11.172Z,54.10
2022-08-09T07:29:57.252Z,53.90
2022-08-09T07:32:32.240Z,53.50
2022-08-09T07:35:02.854Z,52.70
2022-08-09T07:37:42.848Z,51.90
2022-08-09T07:40:17.509Z,53.00
2022-08-09T07:42:50.421Z,52.50
2022-08-09T07:45:22.833Z,52.20
2022-08-09T07:48:05.533Z,51.40
2022-08-09T07:50:36.385Z,51.10
2022-08-09T07:53:05.428Z,51.60
2022-08-09T07:55:41.669Z,51.60
2022-08-09T07:58:26.332Z,50.60
2022-08-09T08:00:56.101Z,49.90
2022-08-09T08:03:37.031Z,49.90
2022-08-09T08:06:05.067Z,49.60
2022-08-09T08:09:02.146Z,48.20
2022-08-09T08:12:09.419Z,47.70
2022-08-09T08:14:10.421Z,47.40
2022-08-09T08:16:39.581Z,46.80
2022-08-09T08:19:11.373Z,46.90
2022-08-09T08:21:39.684Z,47.60
2022-08-09T08:24:11.930Z,47.20
2022-08-09T08:26:55.684Z,47.10
2022-08-09T08:29:27.816Z,45.20
2022-08-09T08:32:03.248Z,44.00
2022-08-09T08:34:31.987Z,43.80
2022-08-09T08:37:02.494Z,43.00
2022-08-09T08:39:39.268Z,40.60
2022-08-09T08:42:12.978Z,39.90
2022-08-09T08:44:42.087Z,39.30
2022-08-09T08:47:13.037Z,38.70
2022-08-09T08:49:48.038Z,39.40
2022-08-09T08:52:52.968Z,39.90
2022-08-09T08:55:06.319Z,41.20
2022-08-09T08:57:37.569Z,38.30
2022-08-09T09:00:08.223Z,37.10
2022-08-09T09:02:46.916Z,38.10
2022-08-09T09:05:57.818Z,37.60
2022-08-09T09:08:30.963Z,37.70
2022-08-09T09:11:01.840Z,37.40
2022-08-09T09:13:42.207Z,38.90
2022-08-09T09:16:31.259Z,37.80
2022-08-09T09:19:21.569Z,37.30
2022-08-09T09:22:08.021Z,38.30
2022-08-09T09:24:43.299Z,38.00
2022-08-09T09:28:02.998Z,37.30
2022-08-09T09:30:22.712Z,36.40
2022-08-09T09:33:15.757Z,36.50
2022-08-09T09:36:00.598Z,36.00
2022-08-09T09:38:43.839Z,37.10
2022-08-09T09:41:12.368Z,37.50
2022-08-09T09:43:41.512Z,38.30
2022-08-09T09:46:43.016Z,36.10
2022-08-09T09:49:14.220Z,36.80
2022-08-09T09:51:42.519Z,37.10
2022-08-09T09:54:20.504Z,38.10
2022-08-09T09:56:53.257Z,37.10
2022-08-09T09:59:38.443Z,37.90
2022-08-09T10:02:08.298Z,36.40
2022-08-09T10:04:36.176Z,36.90
2022-08-09T10:07:09.929Z,37.70
2022-08-09T10:09:49.007Z,37.00
2022-08-09T10:12:28.008Z,35.60
2022-08-09T10:15:04.548Z,35.90
2022-08-09T10:17:50.182Z,34.60
2022-08-09T10:20:27.483Z,35.20
2022-08-09T10:23:13.926Z,38.20
2022-08-09T10:26:07.795Z,36.90
2022-08-09T10:28:34.690Z,37.40
2022-08-09T10:34:10.545Z,37.60
2022-08-09T10:36:42.212Z,36.90
2022-08-09T10:39:15.825Z,36.80
2022-08-09T10:41:47.832Z,37.60
2022-08-09T10:44:18.238Z,37.50
2022-08-09T10:47:28.157Z,40.90
